sensor_id;sensor_type;location;lat;lon;timestamp;P1;durP1;ratioP1;P2;durP2;ratioP2
13291;SDS011;6714;53.056;8.690;2023-05-16T00:00:15;3.23;;;1.23;;
13291;SDS011;6714;53.056;8.690;2023-05-16T00:02:59;2.87;;;1.67;;
13291;SDS011;6714;53.056;8.690;2023-05-16T00:05:43;2.43;;;1.20;;
13291;SDS011;6714;53.056;8.690;2023-05-16T00:08:25;2.83;;;1.40;;
13291;SDS011;6714;53.056;8.690;2023-05-16T00:11:07;7.23;;;1.60;;
13291;SDS011;6714;53.056;8.690;2023-05-16T00:13:50;4.93;;;1.90;;
13291;SDS011;6714;53.056;8.690;2023-05-16T00:16:32;3.17;;;1.60;;
13291;SDS011;6714;53.056;8.690;2023-05-16T00:19:16;4.17;;;1.73;;
13291;SDS011;6714;53.056;8.690;2023-05-16T00:22:00;6.00;;;1.63;;
13291;SDS011;6714;53.056;8.690;2023-05-16T00:24:43;3.67;;;1.63;;
13291;SDS011;6714;53.056;8.690;2023-05-16T00:27:25;4.00;;;1.70;;
13291;SDS011;6714;53.056;8.690;2023-05-16T00:30:08;4.97;;;1.90;;
13291;SDS011;6714;53.056;8.690;2023-05-16T00:32:50;3.37;;;1.70;;
13291;SDS011;6714;53.056;8.690;2023-05-16T00:35:32;4.07;;;1.90;;
13291;SDS011;6714;53.056;8.690;2023-05-16T00:38:16;3.70;;;1.87;;
13291;SDS011;6714;53.056;8.690;2023-05-16T00:40:58;2.97;;;1.47;;
13291;SDS011;6714;53.056;8.690;2023-05-16T00:43:40;3.50;;;1.77;;
13291;SDS011;6714;53.056;8.690;2023-05-16T00:46:23;4.67;;;1.77;;
13291;SDS011;6714;53.056;8.690;2023-05-16T00:49:05;6.43;;;2.07;;
13291;SDS011;6714;53.056;8.690;2023-05-16T00:51:47;5.13;;;2.00;;
13291;SDS011;6714;53.056;8.690;2023-05-16T00:54:32;6.50;;;1.90;;
13291;SDS011;6714;53.056;8.690;2023-05-16T00:57:15;5.40;;;1.83;;
13291;SDS011;6714;53.056;8.690;2023-05-16T00:59:57;6.80;;;2.13;;
13291;SDS011;6714;53.056;8.690;2023-05-16T01:02:40;8.43;;;2.33;;
13291;SDS011;6714;53.056;8.690;2023-05-16T01:05:22;4.67;;;1.60;;
13291;SDS011;6714;53.056;8.690;2023-05-16T01:08:04;4.67;;;1.53;;
13291;SDS011;6714;53.056;8.690;2023-05-16T01:10:52;4.97;;;1.80;;
13291;SDS011;6714;53.056;8.690;2023-05-16T01:13:38;5.17;;;1.93;;
13291;SDS011;6714;53.056;8.690;2023-05-16T01:16:25;5.60;;;1.80;;
13291;SDS011;6714;53.056;8.690;2023-05-16T01:19:13;5.87;;;2.23;;
13291;SDS011;6714;53.056;8.690;2023-05-16T01:22:02;5.63;;;1.87;;
13291;SDS011;6714;53.056;8.690;2023-05-16T01:24:49;5.70;;;1.80;;
13291;SDS011;6714;53.056;8.690;2023-05-16T01:27:39;3.77;;;1.80;;
13291;SDS011;6714;53.056;8.690;2023-05-16T01:30:21;4.80;;;2.00;;
13291;SDS011;6714;53.056;8.690;2023-05-16T01:33:04;6.87;;;1.90;;
13291;SDS011;6714;53.056;8.690;2023-05-16T01:35:50;5.70;;;2.17;;
13291;SDS011;6714;53.056;8.690;2023-05-16T01:38:35;6.80;;;1.73;;
13291;SDS011;6714;53.056;8.690;2023-05-16T01:41:22;5.20;;;1.80;;
13291;SDS011;6714;53.056;8.690;2023-05-16T01:44:09;3.20;;;1.40;;
13291;SDS011;6714;53.056;8.690;2023-05-16T01:46:53;5.07;;;2.00;;
13291;SDS011;6714;53.056;8.690;2023-05-16T01:49:38;6.87;;;2.33;;
13291;SDS011;6714;53.056;8.690;2023-05-16T01:52:27;8.60;;;2.60;;
13291;SDS011;6714;53.056;8.690;2023-05-16T01:55:13;6.07;;;2.10;;
13291;SDS011;6714;53.056;8.690;2023-05-16T01:57:56;6.50;;;2.20;;
13291;SDS011;6714;53.056;8.690;2023-05-16T02:00:41;4.93;;;1.83;;
13291;SDS011;6714;53.056;8.690;2023-05-16T02:03:23;7.07;;;2.37;;
13291;SDS011;6714;53.056;8.690;2023-05-16T02:06:06;4.07;;;1.70;;
13291;SDS011;6714;53.056;8.690;2023-05-16T02:08:48;4.33;;;1.80;;
13291;SDS011;6714;53.056;8.690;2023-05-16T02:11:30;8.43;;;2.23;;
13291;SDS011;6714;53.056;8.690;2023-05-16T02:14:13;5.10;;;1.83;;
13291;SDS011;6714;53.056;8.690;2023-05-16T02:16:56;4.10;;;1.90;;
13291;SDS011;6714;53.056;8.690;2023-05-16T02:19:39;3.93;;;1.97;;
13291;SDS011;6714;53.056;8.690;2023-05-16T02:22:21;7.30;;;2.17;;
13291;SDS011;6714;53.056;8.690;2023-05-16T02:25:03;7.57;;;2.33;;
13291;SDS011;6714;53.056;8.690;2023-05-16T02:27:46;9.63;;;2.80;;
13291;SDS011;6714;53.056;8.690;2023-05-16T02:30:29;8.33;;;2.30;;
13291;SDS011;6714;53.056;8.690;2023-05-16T02:33:12;8.30;;;2.27;;
13291;SDS011;6714;53.056;8.690;2023-05-16T02:35:55;16.67;;;2.83;;
13291;SDS011;6714;53.056;8.690;2023-05-16T02:38:37;10.17;;;2.17;;
13291;SDS011;6714;53.056;8.690;2023-05-16T02:41:20;8.87;;;2.47;;
13291;SDS011;6714;53.056;8.690;2023-05-16T02:44:03;6.93;;;2.23;;
13291;SDS011;6714;53.056;8.690;2023-05-16T02:46:45;9.90;;;2.67;;
13291;SDS011;6714;53.056;8.690;2023-05-16T02:49:29;6.73;;;2.13;;
13291;SDS011;6714;53.056;8.690;2023-05-16T02:52:11;8.63;;;2.40;;
13291;SDS011;6714;53.056;8.690;2023-05-16T02:54:53;7.10;;;2.20;;
13291;SDS011;6714;53.056;8.690;2023-05-16T02:57:36;8.43;;;2.43;;
13291;SDS011;6714;53.056;8.690;2023-05-16T03:00:18;5.87;;;2.43;;
13291;SDS011;6714;53.056;8.690;2023-05-16T03:03:01;7.83;;;2.23;;
13291;SDS011;6714;53.056;8.690;2023-05-16T03:05:44;7.93;;;2.57;;
13291;SDS011;6714;53.056;8.690;2023-05-16T03:08:27;6.13;;;2.30;;
13291;SDS011;6714;53.056;8.690;2023-05-16T03:11:09;8.80;;;2.23;;
13291;SDS011;6714;53.056;8.690;2023-05-16T03:13:52;7.03;;;2.07;;
13291;SDS011;6714;53.056;8.690;2023-05-16T03:16:34;8.97;;;2.53;;
13291;SDS011;6714;53.056;8.690;2023-05-16T03:19:17;8.30;;;2.30;;
13291;SDS011;6714;53.056;8.690;2023-05-16T03:22:01;7.27;;;2.00;;
13291;SDS011;6714;53.056;8.690;2023-05-16T03:24:43;6.17;;;1.80;;
13291;SDS011;6714;53.056;8.690;2023-05-16T03:27:26;6.73;;;2.03;;
13291;SDS011;6714;53.056;8.690;2023-05-16T03:30:08;6.80;;;2.50;;
13291;SDS011;6714;53.056;8.690;2023-05-16T03:32:51;5.93;;;1.80;;
13291;SDS011;6714;53.056;8.690;2023-05-16T03:35:33;8.70;;;2.30;;
13291;SDS011;6714;53.056;8.690;2023-05-16T03:38:17;6.20;;;1.90;;
13291;SDS011;6714;53.056;8.690;2023-05-16T03:40:59;6.77;;;2.20;;
13291;SDS011;6714;53.056;8.690;2023-05-16T03:43:41;6.47;;;2.10;;
13291;SDS011;6714;53.056;8.690;2023-05-16T03:46:24;6.13;;;2.27;;
13291;SDS011;6714;53.056;8.690;2023-05-16T03:49:06;4.90;;;1.90;;
13291;SDS011;6714;53.056;8.690;2023-05-16T03:51:48;6.03;;;1.80;;
13291;SDS011;6714;53.056;8.690;2023-05-16T03:54:32;10.57;;;2.33;;
13291;SDS011;6714;53.056;8.690;2023-05-16T03:57:15;9.80;;;2.50;;
13291;SDS011;6714;53.056;8.690;2023-05-16T03:59:57;6.23;;;2.50;;
13291;SDS011;6714;53.056;8.690;2023-05-16T04:02:40;5.37;;;1.93;;
13291;SDS011;6714;53.056;8.690;2023-05-16T04:05:22;9.97;;;2.30;;
13291;SDS011;6714;53.056;8.690;2023-05-16T04:08:05;8.80;;;2.40;;
13291;SDS011;6714;53.056;8.690;2023-05-16T04:10:48;5.83;;;2.13;;
13291;SDS011;6714;53.056;8.690;2023-05-16T04:13:31;5.30;;;2.17;;
13291;SDS011;6714;53.056;8.690;2023-05-16T04:16:13;7.70;;;2.13;;
13291;SDS011;6714;53.056;8.690;2023-05-16T04:18:55;5.80;;;2.00;;
13291;SDS011;6714;53.056;8.690;2023-05-16T04:21:38;10.83;;;2.10;;
13291;SDS011;6714;53.056;8.690;2023-05-16T04:24:20;6.87;;;2.03;;
13291;SDS011;6714;53.056;8.690;2023-05-16T04:27:07;5.70;;;2.00;;
13291;SDS011;6714;53.056;8.690;2023-05-16T04:29:49;7.00;;;2.13;;
13291;SDS011;6714;53.056;8.690;2023-05-16T04:32:31;5.40;;;2.07;;
13291;SDS011;6714;53.056;8.690;2023-05-16T04:35:16;6.13;;;2.10;;
13291;SDS011;6714;53.056;8.690;2023-05-16T04:37:58;7.50;;;2.10;;
13291;SDS011;6714;53.056;8.690;2023-05-16T04:40:41;7.03;;;2.00;;
13291;SDS011;6714;53.056;8.690;2023-05-16T04:43:25;5.10;;;1.90;;
13291;SDS011;6714;53.056;8.690;2023-05-16T04:46:07;7.23;;;2.10;;
13291;SDS011;6714;53.056;8.690;2023-05-16T04:48:50;6.87;;;1.70;;
13291;SDS011;6714;53.056;8.690;2023-05-16T04:51:33;3.90;;;1.50;;
13291;SDS011;6714;53.056;8.690;2023-05-16T04:54:15;4.30;;;1.60;;
13291;SDS011;6714;53.056;8.690;2023-05-16T04:56:57;6.37;;;1.90;;
13291;SDS011;6714;53.056;8.690;2023-05-16T04:59:41;6.47;;;2.10;;
13291;SDS011;6714;53.056;8.690;2023-05-16T05:02:24;9.20;;;2.50;;
13291;SDS011;6714;53.056;8.690;2023-05-16T05:05:07;6.07;;;1.87;;
13291;SDS011;6714;53.056;8.690;2023-05-16T05:07:49;7.77;;;2.43;;
13291;SDS011;6714;53.056;8.690;2023-05-16T05:10:32;11.10;;;2.50;;
13291;SDS011;6714;53.056;8.690;2023-05-16T05:13:14;5.77;;;1.97;;
13291;SDS011;6714;53.056;8.690;2023-05-16T05:15:58;5.63;;;1.80;;
13291;SDS011;6714;53.056;8.690;2023-05-16T05:18:43;3.83;;;1.90;;
13291;SDS011;6714;53.056;8.690;2023-05-16T05:21:26;7.40;;;2.17;;
13291;SDS011;6714;53.056;8.690;2023-05-16T05:24:09;8.83;;;2.40;;
13291;SDS011;6714;53.056;8.690;2023-05-16T05:26:52;5.43;;;1.80;;
13291;SDS011;6714;53.056;8.690;2023-05-16T05:29:34;7.37;;;2.00;;
13291;SDS011;6714;53.056;8.690;2023-05-16T05:32:18;6.70;;;2.07;;
13291;SDS011;6714;53.056;8.690;2023-05-16T05:35:00;5.77;;;1.83;;
13291;SDS011;6714;53.056;8.690;2023-05-16T05:37:43;4.03;;;1.83;;
13291;SDS011;6714;53.056;8.690;2023-05-16T05:40:25;6.00;;;1.90;;
13291;SDS011;6714;53.056;8.690;2023-05-16T05:43:07;8.80;;;2.13;;
13291;SDS011;6714;53.056;8.690;2023-05-16T05:45:50;7.00;;;2.17;;
13291;SDS011;6714;53.056;8.690;2023-05-16T05:48:34;6.27;;;2.20;;
13291;SDS011;6714;53.056;8.690;2023-05-16T05:51:16;9.10;;;2.30;;
13291;SDS011;6714;53.056;8.690;2023-05-16T05:54:00;9.00;;;2.00;;
13291;SDS011;6714;53.056;8.690;2023-05-16T05:56:42;6.87;;;1.97;;
13291;SDS011;6714;53.056;8.690;2023-05-16T05:59:24;7.30;;;2.30;;
13291;SDS011;6714;53.056;8.690;2023-05-16T06:02:07;8.17;;;2.23;;
13291;SDS011;6714;53.056;8.690;2023-05-16T06:04:51;10.63;;;2.50;;
13291;SDS011;6714;53.056;8.690;2023-05-16T06:07:33;4.50;;;1.60;;
13291;SDS011;6714;53.056;8.690;2023-05-16T06:10:16;5.80;;;1.63;;
13291;SDS011;6714;53.056;8.690;2023-05-16T06:12:58;8.70;;;2.43;;
13291;SDS011;6714;53.056;8.690;2023-05-16T06:15:40;4.70;;;1.57;;
13291;SDS011;6714;53.056;8.690;2023-05-16T06:18:22;5.80;;;1.67;;
13291;SDS011;6714;53.056;8.690;2023-05-16T06:21:06;4.83;;;1.63;;
13291;SDS011;6714;53.056;8.690;2023-05-16T06:23:48;6.40;;;2.20;;
13291;SDS011;6714;53.056;8.690;2023-05-16T06:26:31;6.57;;;1.97;;
13291;SDS011;6714;53.056;8.690;2023-05-16T06:29:14;8.63;;;2.17;;
13291;SDS011;6714;53.056;8.690;2023-05-16T06:31:56;5.13;;;1.90;;
13291;SDS011;6714;53.056;8.690;2023-05-16T06:34:38;9.30;;;2.07;;
13291;SDS011;6714;53.056;8.690;2023-05-16T06:37:22;7.17;;;2.20;;
13291;SDS011;6714;53.056;8.690;2023-05-16T06:40:05;5.30;;;1.60;;
13291;SDS011;6714;53.056;8.690;2023-05-16T06:42:48;7.20;;;1.90;;
13291;SDS011;6714;53.056;8.690;2023-05-16T06:45:30;7.97;;;1.83;;
13291;SDS011;6714;53.056;8.690;2023-05-16T06:48:13;7.07;;;1.93;;
13291;SDS011;6714;53.056;8.690;2023-05-16T06:50:55;9.20;;;2.67;;
13291;SDS011;6714;53.056;8.690;2023-05-16T06:53:39;7.13;;;2.03;;
13291;SDS011;6714;53.056;8.690;2023-05-16T06:56:21;5.93;;;2.13;;
13291;SDS011;6714;53.056;8.690;2023-05-16T06:59:04;6.10;;;1.97;;
13291;SDS011;6714;53.056;8.690;2023-05-16T07:01:46;5.83;;;1.67;;
13291;SDS011;6714;53.056;8.690;2023-05-16T07:04:28;4.70;;;1.70;;
13291;SDS011;6714;53.056;8.690;2023-05-16T07:07:11;5.97;;;1.93;;
13291;SDS011;6714;53.056;8.690;2023-05-16T07:09:55;5.53;;;1.90;;
13291;SDS011;6714;53.056;8.690;2023-05-16T07:12:40;6.93;;;1.87;;
13291;SDS011;6714;53.056;8.690;2023-05-16T07:15:22;7.57;;;2.07;;
13291;SDS011;6714;53.056;8.690;2023-05-16T07:18:04;7.20;;;1.77;;
13291;SDS011;6714;53.056;8.690;2023-05-16T07:20:47;4.90;;;1.63;;
13291;SDS011;6714;53.056;8.690;2023-05-16T07:23:30;6.03;;;1.70;;
13291;SDS011;6714;53.056;8.690;2023-05-16T07:26:13;6.97;;;2.30;;
13291;SDS011;6714;53.056;8.690;2023-05-16T07:28:56;3.13;;;1.47;;
13291;SDS011;6714;53.056;8.690;2023-05-16T07:31:38;5.30;;;1.67;;
13291;SDS011;6714;53.056;8.690;2023-05-16T07:34:21;5.53;;;1.50;;
13291;SDS011;6714;53.056;8.690;2023-05-16T07:37:03;5.73;;;1.70;;
13291;SDS011;6714;53.056;8.690;2023-05-16T07:39:51;4.30;;;1.73;;
13291;SDS011;6714;53.056;8.690;2023-05-16T07:42:35;6.60;;;1.83;;
13291;SDS011;6714;53.056;8.690;2023-05-16T07:45:18;4.90;;;1.43;;
13291;SDS011;6714;53.056;8.690;2023-05-16T07:48:00;6.70;;;1.87;;
13291;SDS011;6714;53.056;8.690;2023-05-16T07:50:43;6.80;;;1.93;;
13291;SDS011;6714;53.056;8.690;2023-05-16T07:53:25;5.33;;;1.63;;
13291;SDS011;6714;53.056;8.690;2023-05-16T07:56:07;5.10;;;1.70;;
13291;SDS011;6714;53.056;8.690;2023-05-16T07:58:51;4.43;;;1.60;;
13291;SDS011;6714;53.056;8.690;2023-05-16T08:01:34;5.83;;;2.00;;
13291;SDS011;6714;53.056;8.690;2023-05-16T08:04:16;5.27;;;1.90;;
13291;SDS011;6714;53.056;8.690;2023-05-16T08:06:59;5.30;;;1.50;;
13291;SDS011;6714;53.056;8.690;2023-05-16T08:09:41;5.17;;;1.80;;
13291;SDS011;6714;53.056;8.690;2023-05-16T08:12:24;5.47;;;1.73;;
13291;SDS011;6714;53.056;8.690;2023-05-16T08:15:08;5.37;;;1.60;;
13291;SDS011;6714;53.056;8.690;2023-05-16T08:17:51;3.70;;;1.43;;
13291;SDS011;6714;53.056;8.690;2023-05-16T08:20:33;5.57;;;1.50;;
13291;SDS011;6714;53.056;8.690;2023-05-16T08:23:16;4.33;;;1.27;;
13291;SDS011;6714;53.056;8.690;2023-05-16T08:25:58;3.30;;;1.53;;
13291;SDS011;6714;53.056;8.690;2023-05-16T08:28:40;4.00;;;1.60;;
13291;SDS011;6714;53.056;8.690;2023-05-16T08:31:24;3.97;;;1.40;;
13291;SDS011;6714;53.056;8.690;2023-05-16T08:34:06;3.70;;;1.47;;
13291;SDS011;6714;53.056;8.690;2023-05-16T08:36:49;4.77;;;1.70;;
13291;SDS011;6714;53.056;8.690;2023-05-16T08:39:31;6.70;;;1.57;;
13291;SDS011;6714;53.056;8.690;2023-05-16T08:42:13;6.43;;;1.80;;
13291;SDS011;6714;53.056;8.690;2023-05-16T08:44:55;5.20;;;1.60;;
13291;SDS011;6714;53.056;8.690;2023-05-16T08:47:39;5.60;;;2.00;;
13291;SDS011;6714;53.056;8.690;2023-05-16T08:50:23;4.23;;;1.50;;
13291;SDS011;6714;53.056;8.690;2023-05-16T08:53:06;3.83;;;1.33;;
13291;SDS011;6714;53.056;8.690;2023-05-16T08:55:48;2.97;;;1.20;;
13291;SDS011;6714;53.056;8.690;2023-05-16T08:58:32;5.57;;;1.60;;
13291;SDS011;6714;53.056;8.690;2023-05-16T09:01:14;7.70;;;1.97;;
13291;SDS011;6714;53.056;8.690;2023-05-16T09:03:59;4.73;;;1.67;;
13291;SDS011;6714;53.056;8.690;2023-05-16T09:06:41;3.07;;;1.40;;
13291;SDS011;6714;53.056;8.690;2023-05-16T09:09:23;3.43;;;1.50;;
13291;SDS011;6714;53.056;8.690;2023-05-16T09:12:06;3.90;;;1.47;;
13291;SDS011;6714;53.056;8.690;2023-05-16T09:14:48;1.77;;;1.20;;
13291;SDS011;6714;53.056;8.690;2023-05-16T09:17:33;3.17;;;1.30;;
13291;SDS011;6714;53.056;8.690;2023-05-16T09:20:18;3.73;;;1.50;;
13291;SDS011;6714;53.056;8.690;2023-05-16T09:23:01;3.93;;;1.37;;
13291;SDS011;6714;53.056;8.690;2023-05-16T09:25:43;3.33;;;1.30;;
13291;SDS011;6714;53.056;8.690;2023-05-16T09:28:26;3.00;;;1.13;;
13291;SDS011;6714;53.056;8.690;2023-05-16T09:31:18;2.97;;;1.00;;
13291;SDS011;6714;53.056;8.690;2023-05-16T09:34:01;3.17;;;1.30;;
13291;SDS011;6714;53.056;8.690;2023-05-16T09:36:44;4.30;;;1.43;;
13291;SDS011;6714;53.056;8.690;2023-05-16T09:39:26;2.80;;;1.20;;
13291;SDS011;6714;53.056;8.690;2023-05-16T09:42:09;3.73;;;1.37;;
13291;SDS011;6714;53.056;8.690;2023-05-16T09:44:53;2.40;;;1.37;;
13291;SDS011;6714;53.056;8.690;2023-05-16T09:47:36;2.97;;;1.30;;
13291;SDS011;6714;53.056;8.690;2023-05-16T09:50:25;2.93;;;1.50;;
13291;SDS011;6714;53.056;8.690;2023-05-16T09:53:08;2.67;;;1.50;;
13291;SDS011;6714;53.056;8.690;2023-05-16T09:55:58;1.83;;;1.13;;
13291;SDS011;6714;53.056;8.690;2023-05-16T09:58:41;1.63;;;1.10;;
13291;SDS011;6714;53.056;8.690;2023-05-16T10:01:24;2.47;;;1.00;;
13291;SDS011;6714;53.056;8.690;2023-05-16T10:04:06;2.57;;;1.20;;
13291;SDS011;6714;53.056;8.690;2023-05-16T10:06:53;3.63;;;1.63;;
13291;SDS011;6714;53.056;8.690;2023-05-16T10:09:38;5.73;;;1.70;;
13291;SDS011;6714;53.056;8.690;2023-05-16T10:12:20;3.77;;;1.30;;
13291;SDS011;6714;53.056;8.690;2023-05-16T10:15:07;3.97;;;1.40;;
13291;SDS011;6714;53.056;8.690;2023-05-16T10:17:50;4.83;;;1.23;;
13291;SDS011;6714;53.056;8.690;2023-05-16T10:20:32;4.10;;;1.37;;
13291;SDS011;6714;53.056;8.690;2023-05-16T10:23:15;2.43;;;1.23;;
13291;SDS011;6714;53.056;8.690;2023-05-16T10:26:00;3.90;;;1.60;;
13291;SDS011;6714;53.056;8.690;2023-05-16T10:28:43;2.63;;;1.07;;
13291;SDS011;6714;53.056;8.690;2023-05-16T10:31:26;1.90;;;1.13;;
13291;SDS011;6714;53.056;8.690;2023-05-16T10:34:09;2.67;;;1.10;;
13291;SDS011;6714;53.056;8.690;2023-05-16T10:36:51;2.00;;;1.10;;
13291;SDS011;6714;53.056;8.690;2023-05-16T10:39:34;2.53;;;1.20;;
13291;SDS011;6714;53.056;8.690;2023-05-16T10:42:18;3.00;;;0.90;;
13291;SDS011;6714;53.056;8.690;2023-05-16T10:45:14;1.97;;;1.10;;
13291;SDS011;6714;53.056;8.690;2023-05-16T10:47:57;2.63;;;1.10;;
13291;SDS011;6714;53.056;8.690;2023-05-16T10:50:40;1.33;;;1.10;;
13291;SDS011;6714;53.056;8.690;2023-05-16T10:53:28;1.70;;;1.00;;
13291;SDS011;6714;53.056;8.690;2023-05-16T10:56:11;1.77;;;1.03;;
13291;SDS011;6714;53.056;8.690;2023-05-16T10:58:55;2.67;;;1.20;;
13291;SDS011;6714;53.056;8.690;2023-05-16T11:01:39;1.17;;;0.80;;
13291;SDS011;6714;53.056;8.690;2023-05-16T11:04:21;2.13;;;1.00;;
13291;SDS011;6714;53.056;8.690;2023-05-16T11:07:03;1.30;;;0.77;;
13291;SDS011;6714;53.056;8.690;2023-05-16T11:10:01;1.23;;;1.10;;
13291;SDS011;6714;53.056;8.690;2023-05-16T11:12:44;1.77;;;0.90;;
13291;SDS011;6714;53.056;8.690;2023-05-16T11:15:30;0.80;;;0.80;;
13291;SDS011;6714;53.056;8.690;2023-05-16T11:18:14;1.63;;;1.00;;
13291;SDS011;6714;53.056;8.690;2023-05-16T11:21:01;0.97;;;0.83;;
13291;SDS011;6714;53.056;8.690;2023-05-16T11:23:45;1.67;;;1.00;;
13291;SDS011;6714;53.056;8.690;2023-05-16T11:26:47;1.03;;;0.93;;
13291;SDS011;6714;53.056;8.690;2023-05-16T11:29:30;1.67;;;0.97;;
13291;SDS011;6714;53.056;8.690;2023-05-16T11:32:14;1.90;;;1.17;;
13291;SDS011;6714;53.056;8.690;2023-05-16T11:35:00;1.73;;;1.10;;
13291;SDS011;6714;53.056;8.690;2023-05-16T11:37:43;2.90;;;1.37;;
13291;SDS011;6714;53.056;8.690;2023-05-16T11:40:25;1.50;;;1.00;;
13291;SDS011;6714;53.056;8.690;2023-05-16T11:43:08;2.40;;;0.93;;
13291;SDS011;6714;53.056;8.690;2023-05-16T11:45:53;2.50;;;1.10;;
13291;SDS011;6714;53.056;8.690;2023-05-16T11:48:37;1.93;;;1.10;;
13291;SDS011;6714;53.056;8.690;2023-05-16T11:51:19;2.50;;;1.20;;
13291;SDS011;6714;53.056;8.690;2023-05-16T11:54:02;3.03;;;1.17;;
13291;SDS011;6714;53.056;8.690;2023-05-16T11:56:45;2.33;;;0.80;;
13291;SDS011;6714;53.056;8.690;2023-05-16T11:59:27;4.10;;;1.40;;
13291;SDS011;6714;53.056;8.690;2023-05-16T12:02:10;2.37;;;1.07;;
13291;SDS011;6714;53.056;8.690;2023-05-16T12:04:53;3.43;;;1.30;;
13291;SDS011;6714;53.056;8.690;2023-05-16T12:07:36;1.97;;;1.13;;
13291;SDS011;6714;53.056;8.690;2023-05-16T12:10:18;3.70;;;1.23;;
13291;SDS011;6714;53.056;8.690;2023-05-16T12:13:00;2.10;;;1.00;;
13291;SDS011;6714;53.056;8.690;2023-05-16T12:15:43;2.70;;;1.17;;
13291;SDS011;6714;53.056;8.690;2023-05-16T12:18:25;1.77;;;1.03;;
13291;SDS011;6714;53.056;8.690;2023-05-16T12:21:09;1.33;;;0.90;;
13291;SDS011;6714;53.056;8.690;2023-05-16T12:23:52;2.53;;;1.30;;
13291;SDS011;6714;53.056;8.690;2023-05-16T12:26:37;2.43;;;1.20;;
13291;SDS011;6714;53.056;8.690;2023-05-16T12:29:20;1.97;;;1.23;;
13291;SDS011;6714;53.056;8.690;2023-05-16T12:32:06;1.83;;;1.00;;
13291;SDS011;6714;53.056;8.690;2023-05-16T12:34:49;2.27;;;1.30;;
13291;SDS011;6714;53.056;8.690;2023-05-16T12:37:33;3.63;;;1.30;;
13291;SDS011;6714;53.056;8.690;2023-05-16T12:40:15;3.40;;;1.10;;
13291;SDS011;6714;53.056;8.690;2023-05-16T12:42:57;1.83;;;1.10;;
13291;SDS011;6714;53.056;8.690;2023-05-16T12:45:39;3.00;;;1.40;;
13291;SDS011;6714;53.056;8.690;2023-05-16T12:48:22;1.50;;;1.03;;
13291;SDS011;6714;53.056;8.690;2023-05-16T12:51:11;3.23;;;1.30;;
13291;SDS011;6714;53.056;8.690;2023-05-16T12:53:56;3.03;;;1.30;;
13291;SDS011;6714;53.056;8.690;2023-05-16T12:56:38;3.37;;;1.50;;
13291;SDS011;6714;53.056;8.690;2023-05-16T12:59:21;3.17;;;1.30;;
13291;SDS011;6714;53.056;8.690;2023-05-16T13:02:03;1.20;;;0.90;;
13291;SDS011;6714;53.056;8.690;2023-05-16T13:04:45;2.33;;;1.50;;
13291;SDS011;6714;53.056;8.690;2023-05-16T13:07:27;2.67;;;1.30;;
13291;SDS011;6714;53.056;8.690;2023-05-16T13:10:11;3.43;;;1.47;;
13291;SDS011;6714;53.056;8.690;2023-05-16T13:12:53;2.00;;;1.20;;
13291;SDS011;6714;53.056;8.690;2023-05-16T13:15:37;2.57;;;1.23;;
13291;SDS011;6714;53.056;8.690;2023-05-16T13:18:21;3.50;;;1.20;;
13291;SDS011;6714;53.056;8.690;2023-05-16T13:21:03;2.67;;;1.10;;
13291;SDS011;6714;53.056;8.690;2023-05-16T13:23:46;2.93;;;1.37;;
13291;SDS011;6714;53.056;8.690;2023-05-16T13:26:29;2.43;;;1.10;;
13291;SDS011;6714;53.056;8.690;2023-05-16T13:29:11;3.73;;;1.30;;
13291;SDS011;6714;53.056;8.690;2023-05-16T13:31:54;2.57;;;1.30;;
13291;SDS011;6714;53.056;8.690;2023-05-16T13:34:36;2.57;;;1.60;;
13291;SDS011;6714;53.056;8.690;2023-05-16T13:37:18;3.30;;;1.27;;
13291;SDS011;6714;53.056;8.690;2023-05-16T13:40:04;2.20;;;1.10;;
13291;SDS011;6714;53.056;8.690;2023-05-16T13:42:50;2.60;;;1.27;;
13291;SDS011;6714;53.056;8.690;2023-05-16T13:45:32;2.97;;;1.20;;
13291;SDS011;6714;53.056;8.690;2023-05-16T13:48:16;1.83;;;1.03;;
13291;SDS011;6714;53.056;8.690;2023-05-16T13:50:58;3.57;;;1.33;;
13291;SDS011;6714;53.056;8.690;2023-05-16T13:53:41;3.60;;;1.40;;
13291;SDS011;6714;53.056;8.690;2023-05-16T13:56:23;3.00;;;1.10;;
13291;SDS011;6714;53.056;8.690;2023-05-16T13:59:07;2.83;;;1.27;;
13291;SDS011;6714;53.056;8.690;2023-05-16T14:01:49;1.77;;;1.10;;
13291;SDS011;6714;53.056;8.690;2023-05-16T14:04:31;3.23;;;1.40;;
13291;SDS011;6714;53.056;8.690;2023-05-16T14:07:13;3.67;;;1.10;;
13291;SDS011;6714;53.056;8.690;2023-05-16T14:09:55;2.27;;;1.10;;
13291;SDS011;6714;53.056;8.690;2023-05-16T14:12:38;1.93;;;1.20;;
13291;SDS011;6714;53.056;8.690;2023-05-16T14:15:21;2.60;;;1.10;;
13291;SDS011;6714;53.056;8.690;2023-05-16T14:18:04;2.43;;;1.30;;
13291;SDS011;6714;53.056;8.690;2023-05-16T14:20:46;2.20;;;1.17;;
13291;SDS011;6714;53.056;8.690;2023-05-16T14:23:29;2.77;;;1.30;;
13291;SDS011;6714;53.056;8.690;2023-05-16T14:26:12;1.17;;;0.90;;
13291;SDS011;6714;53.056;8.690;2023-05-16T14:28:54;2.47;;;1.40;;
13291;SDS011;6714;53.056;8.690;2023-05-16T14:31:37;3.27;;;1.30;;
13291;SDS011;6714;53.056;8.690;2023-05-16T14:34:19;2.23;;;1.17;;
13291;SDS011;6714;53.056;8.690;2023-05-16T14:37:02;1.80;;;1.20;;
13291;SDS011;6714;53.056;8.690;2023-05-16T14:39:45;3.07;;;1.50;;
13291;SDS011;6714;53.056;8.690;2023-05-16T14:42:29;2.90;;;1.47;;
13291;SDS011;6714;53.056;8.690;2023-05-16T14:45:11;6.20;;;1.67;;
13291;SDS011;6714;53.056;8.690;2023-05-16T14:47:55;2.93;;;1.13;;
13291;SDS011;6714;53.056;8.690;2023-05-16T14:50:37;3.27;;;1.57;;
13291;SDS011;6714;53.056;8.690;2023-05-16T14:53:19;3.03;;;1.33;;
13291;SDS011;6714;53.056;8.690;2023-05-16T14:56:02;2.00;;;1.10;;
13291;SDS011;6714;53.056;8.690;2023-05-16T14:58:44;1.97;;;1.20;;
13291;SDS011;6714;53.056;8.690;2023-05-16T15:01:26;3.57;;;1.53;;
13291;SDS011;6714;53.056;8.690;2023-05-16T15:04:10;2.13;;;1.20;;
13291;SDS011;6714;53.056;8.690;2023-05-16T15:06:52;3.80;;;1.37;;
13291;SDS011;6714;53.056;8.690;2023-05-16T15:09:34;5.03;;;1.80;;
13291;SDS011;6714;53.056;8.690;2023-05-16T15:12:16;2.23;;;1.27;;
13291;SDS011;6714;53.056;8.690;2023-05-16T15:14:58;2.80;;;1.67;;
13291;SDS011;6714;53.056;8.690;2023-05-16T15:17:41;3.40;;;1.47;;
13291;SDS011;6714;53.056;8.690;2023-05-16T15:20:24;3.70;;;1.63;;
13291;SDS011;6714;53.056;8.690;2023-05-16T15:23:07;4.50;;;1.30;;
13291;SDS011;6714;53.056;8.690;2023-05-16T15:25:49;2.87;;;1.50;;
13291;SDS011;6714;53.056;8.690;2023-05-16T15:28:32;3.23;;;1.80;;
13291;SDS011;6714;53.056;8.690;2023-05-16T15:31:14;4.20;;;1.80;;
13291;SDS011;6714;53.056;8.690;2023-05-16T15:33:56;3.03;;;1.57;;
13291;SDS011;6714;53.056;8.690;2023-05-16T15:36:39;2.57;;;1.80;;
13291;SDS011;6714;53.056;8.690;2023-05-16T15:39:22;6.10;;;2.30;;
13291;SDS011;6714;53.056;8.690;2023-05-16T15:42:05;5.90;;;2.23;;
13291;SDS011;6714;53.056;8.690;2023-05-16T15:44:47;4.40;;;1.90;;
13291;SDS011;6714;53.056;8.690;2023-05-16T15:47:29;5.33;;;2.10;;
13291;SDS011;6714;53.056;8.690;2023-05-16T15:50:12;3.57;;;1.80;;
13291;SDS011;6714;53.056;8.690;2023-05-16T15:52:56;4.23;;;2.20;;
13291;SDS011;6714;53.056;8.690;2023-05-16T15:55:38;5.20;;;2.27;;
13291;SDS011;6714;53.056;8.690;2023-05-16T15:58:20;3.00;;;1.80;;
13291;SDS011;6714;53.056;8.690;2023-05-16T16:01:02;3.80;;;2.07;;
13291;SDS011;6714;53.056;8.690;2023-05-16T16:03:46;2.87;;;1.97;;
13291;SDS011;6714;53.056;8.690;2023-05-16T16:06:28;4.30;;;2.13;;
13291;SDS011;6714;53.056;8.690;2023-05-16T16:09:12;3.93;;;2.10;;
13291;SDS011;6714;53.056;8.690;2023-05-16T16:11:55;1.77;;;1.57;;
13291;SDS011;6714;53.056;8.690;2023-05-16T16:14:37;3.10;;;1.90;;
13291;SDS011;6714;53.056;8.690;2023-05-16T16:17:20;3.17;;;2.07;;
13291;SDS011;6714;53.056;8.690;2023-05-16T16:20:02;2.73;;;1.67;;
13291;SDS011;6714;53.056;8.690;2023-05-16T16:22:44;4.30;;;2.07;;
13291;SDS011;6714;53.056;8.690;2023-05-16T16:25:28;2.60;;;1.60;;
13291;SDS011;6714;53.056;8.690;2023-05-16T16:28:10;4.03;;;1.87;;
13291;SDS011;6714;53.056;8.690;2023-05-16T16:31:00;3.13;;;1.77;;
13291;SDS011;6714;53.056;8.690;2023-05-16T16:33:43;3.50;;;1.77;;
13291;SDS011;6714;53.056;8.690;2023-05-16T16:36:28;3.00;;;1.80;;